createdAt,value
2018-05-10T00:00:32.771Z,5.33
2018-05-10T00:03:01.787Z,5.60
2018-05-10T00:05:30.027Z,5.78
2018-05-10T00:07:58.384Z,5.22
2018-05-10T00:10:26.533Z,5.67
2018-05-10T00:12:55.132Z,5.70
2018-05-10T00:15:24.036Z,5.50
2018-05-10T00:17:52.280Z,5.60
2018-05-10T00:20:21.295Z,5.50
2018-05-10T00:22:49.539Z,5.43
2018-05-10T00:25:18.555Z,5.50
2018-05-10T00:27:47.570Z,6.00
2018-05-10T00:30:15.811Z,5.40
2018-05-10T00:32:44.063Z,5.70
2018-05-10T00:35:12.314Z,5.40
2018-05-10T00:37:40.568Z,5.17
2018-05-10T00:40:09.583Z,5.60
2018-05-10T00:42:37.839Z,5.40
2018-05-10T00:45:07.471Z,5.53
2018-05-10T00:47:35.725Z,5.93
2018-05-10T00:50:04.734Z,4.90
2018-05-10T00:52:33.756Z,5.28
2018-05-10T00:55:01.994Z,5.50
2018-05-10T00:57:30.247Z,4.93
2018-05-10T00:59:58.493Z,5.13
2018-05-10T01:02:26.740Z,5.30
2018-05-10T01:04:55.812Z,5.33
2018-05-10T01:07:26.010Z,5.30
2018-05-10T01:09:54.244Z,5.43
2018-05-10T01:12:23.259Z,5.90
2018-05-10T01:14:51.501Z,5.07
2018-05-10T01:17:19.756Z,5.80
2018-05-10T01:19:47.999Z,5.03
2018-05-10T01:22:16.255Z,5.97
2018-05-10T01:24:44.509Z,5.90
2018-05-10T01:27:12.750Z,5.80
2018-05-10T01:29:41.009Z,6.22
2018-05-10T01:32:10.015Z,5.93
2018-05-10T01:34:39.033Z,6.47
2018-05-10T01:37:07.285Z,5.50
2018-05-10T01:39:36.292Z,6.17
2018-05-10T01:42:05.298Z,5.53
2018-05-10T01:44:33.559Z,5.90
2018-05-10T01:47:02.563Z,5.40
2018-05-10T01:49:31.583Z,6.03
2018-05-10T01:51:59.831Z,5.60
2018-05-10T01:54:28.847Z,5.37
2018-05-10T01:56:57.078Z,5.30
2018-05-10T01:59:25.340Z,5.90
2018-05-10T02:01:53.578Z,5.43
2018-05-10T02:04:22.602Z,5.33
2018-05-10T02:06:50.839Z,5.33
2018-05-10T02:09:19.091Z,5.57
2018-05-10T02:11:47.340Z,5.07
2018-05-10T02:14:15.603Z,5.20
2018-05-10T02:16:43.855Z,5.30
2018-05-10T02:19:12.105Z,5.70
2018-05-10T02:21:41.586Z,5.23
2018-05-10T02:24:09.834Z,5.30
2018-05-10T02:26:38.842Z,5.37
2018-05-10T02:29:07.869Z,5.67
2018-05-10T02:31:36.116Z,5.40
2018-05-10T02:34:05.145Z,5.70
2018-05-10T02:36:33.375Z,4.77
2018-05-10T02:39:01.623Z,5.60
2018-05-10T02:41:29.878Z,5.40
2018-05-10T02:43:58.128Z,5.70
2018-05-10T02:46:27.138Z,5.33
2018-05-10T02:48:56.152Z,5.63
2018-05-10T02:51:24.403Z,5.47
2018-05-10T02:53:53.414Z,5.97
2018-05-10T02:56:22.431Z,6.03
2018-05-10T02:58:50.687Z,5.73
2018-05-10T03:01:19.705Z,5.50
2018-05-10T03:03:47.940Z,5.47
2018-05-10T03:06:16.238Z,5.37
2018-05-10T03:08:45.243Z,5.07
2018-05-10T03:11:14.268Z,5.73
2018-05-10T03:13:42.512Z,5.83
2018-05-10T03:16:11.531Z,4.73
2018-05-10T03:18:39.771Z,5.40
2018-05-10T03:21:08.033Z,4.70
2018-05-10T03:23:36.271Z,5.03
2018-05-10T03:26:04.535Z,5.23
2018-05-10T03:28:33.545Z,5.63
2018-05-10T03:31:02.562Z,6.10
2018-05-10T03:33:30.804Z,5.57
2018-05-10T03:35:59.827Z,5.30
2018-05-10T03:38:28.079Z,5.07
2018-05-10T03:40:56.326Z,6.00
2018-05-10T03:43:24.565Z,5.90
2018-05-10T03:45:52.819Z,5.17
2018-05-10T03:48:21.833Z,5.13
2018-05-10T03:50:50.884Z,5.90
2018-05-10T03:53:19.112Z,5.50
2018-05-10T03:55:47.466Z,6.13
2018-05-10T03:58:15.710Z,5.93
2018-05-10T04:00:43.968Z,6.10
2018-05-10T04:06:49.066Z,5.17
2018-05-10T04:12:24.347Z,5.67
2018-05-10T04:14:52.595Z,5.37
2018-05-10T04:17:21.614Z,5.53
2018-05-10T04:19:49.863Z,5.60
2018-05-10T04:22:18.883Z,6.05
2018-05-10T04:24:47.915Z,5.55
2018-05-10T04:27:17.405Z,5.70
2018-05-10T04:29:45.657Z,5.57
2018-05-10T04:32:14.676Z,5.22
2018-05-10T04:34:42.919Z,5.17
2018-05-10T04:37:11.171Z,5.20
2018-05-10T04:39:39.410Z,5.70
2018-05-10T04:42:07.698Z,5.80
2018-05-10T04:44:36.687Z,5.90
2018-05-10T04:47:04.958Z,5.97
2018-05-10T04:49:33.936Z,5.55
2018-05-10T04:52:02.184Z,5.23
2018-05-10T04:54:30.436Z,4.50
2018-05-10T04:56:58.699Z,4.80
2018-05-10T04:59:27.709Z,4.50
2018-05-10T05:01:55.959Z,4.30
2018-05-10T05:04:24.976Z,4.15
2018-05-10T05:06:54.003Z,4.30
2018-05-10T05:09:23.075Z,4.28
2018-05-10T05:11:51.397Z,3.90
2018-05-10T05:14:20.361Z,4.33
2018-05-10T05:16:48.615Z,4.30
2018-05-10T05:19:17.671Z,4.13
2018-05-10T05:21:45.903Z,4.15
2018-05-10T05:24:14.925Z,4.60
2018-05-10T05:26:43.188Z,4.27
2018-05-10T05:29:12.199Z,4.25
2018-05-10T05:31:40.495Z,4.40
2018-05-10T05:34:09.484Z,4.57
2018-05-10T05:36:37.842Z,5.20
2018-05-10T05:39:05.997Z,4.73
2018-05-10T05:41:34.795Z,4.43
2018-05-10T05:44:03.824Z,4.57
2018-05-10T05:46:32.084Z,4.27
2018-05-10T05:49:01.124Z,4.50
2018-05-10T05:51:29.375Z,4.00
2018-05-10T05:53:58.400Z,4.40
2018-05-10T05:56:26.642Z,4.20
2018-05-10T05:58:55.671Z,4.13
2018-05-10T06:01:23.940Z,3.67
2018-05-10T06:03:52.206Z,3.87
2018-05-10T06:06:21.220Z,3.60
2018-05-10T06:08:49.487Z,3.47
2018-05-10T06:11:18.506Z,3.33
2018-05-10T06:13:47.631Z,3.15
2018-05-10T06:16:15.890Z,3.47
2018-05-10T06:18:44.147Z,2.93
2018-05-10T06:21:12.441Z,2.70
2018-05-10T06:23:40.671Z,2.72
2018-05-10T06:26:08.929Z,2.50
2018-05-10T06:28:37.182Z,2.63
2018-05-10T06:31:05.431Z,2.20
2018-05-10T06:33:34.459Z,2.33
2018-05-10T06:36:02.710Z,2.30
2018-05-10T06:38:31.751Z,2.00
2018-05-10T06:41:00.003Z,2.10
2018-05-10T06:43:29.028Z,2.30
2018-05-10T06:45:57.279Z,2.10
2018-05-10T06:48:26.323Z,2.30
2018-05-10T06:50:54.578Z,2.13
2018-05-10T06:53:22.834Z,2.17
2018-05-10T06:55:51.093Z,2.20
2018-05-10T06:58:19.360Z,2.30
2018-05-10T07:00:47.615Z,2.00
2018-05-10T07:03:15.892Z,2.22
2018-05-10T07:05:44.130Z,2.08
2018-05-10T07:08:13.163Z,2.20
2018-05-10T07:10:41.412Z,2.20
2018-05-10T07:13:10.439Z,2.40
2018-05-10T07:15:38.699Z,2.25
2018-05-10T07:18:06.975Z,2.10
2018-05-10T07:20:35.995Z,2.30
2018-05-10T07:23:04.251Z,2.83
2018-05-10T07:25:33.274Z,2.10
2018-05-10T07:28:01.544Z,2.95
2018-05-10T07:30:29.090Z,3.10
2018-05-10T07:32:58.156Z,2.67
2018-05-10T07:35:27.845Z,3.80
2018-05-10T07:37:56.100Z,3.90
2018-05-10T07:40:24.351Z,3.70
2018-05-10T07:42:53.379Z,3.70
2018-05-10T07:45:21.645Z,3.65
2018-05-10T07:47:50.674Z,3.13
2018-05-10T07:50:18.927Z,3.55
2018-05-10T07:52:47.182Z,3.43
2018-05-10T07:55:15.447Z,3.62
2018-05-10T07:57:43.705Z,4.30
2018-05-10T08:00:11.971Z,3.80
2018-05-10T08:02:40.224Z,2.97
2018-05-10T08:05:09.258Z,3.37
2018-05-10T08:07:38.439Z,3.92
2018-05-10T08:10:06.716Z,3.80
2018-05-10T08:12:35.733Z,3.60
2018-05-10T08:15:04.004Z,3.70
2018-05-10T08:17:32.252Z,3.60
2018-05-10T08:20:01.275Z,3.40
2018-05-10T08:22:29.535Z,3.53
2018-05-10T08:24:58.555Z,4.87
2018-05-10T08:27:52.433Z,4.15
2018-05-10T08:30:20.708Z,3.50
2018-05-10T08:32:48.947Z,3.53
2018-05-10T08:35:17.220Z,3.30
2018-05-10T08:37:45.453Z,3.50
2018-05-10T08:40:13.721Z,3.30
2018-05-10T08:42:41.965Z,3.30
2018-05-10T08:45:10.407Z,3.70
2018-05-10T08:47:38.502Z,3.37
2018-05-10T08:50:06.755Z,3.78
2018-05-10T08:52:35.015Z,3.45
2018-05-10T08:55:03.280Z,3.47
2018-05-10T08:57:32.286Z,2.90
2018-05-10T09:00:00.590Z,2.60
2018-05-10T09:02:29.571Z,2.40
2018-05-10T09:04:57.831Z,2.50
2018-05-10T09:07:26.903Z,2.28
2018-05-10T09:09:55.125Z,1.97
2018-05-10T09:12:24.147Z,1.80
2018-05-10T09:14:52.403Z,1.93
2018-05-10T09:17:20.656Z,2.20
2018-05-10T09:19:48.920Z,1.90
2018-05-10T09:22:17.177Z,1.80
2018-05-10T09:24:45.438Z,2.20
2018-05-10T09:27:13.688Z,2.00
2018-05-10T09:29:43.980Z,1.90
2018-05-10T09:32:12.227Z,2.03
2018-05-10T09:34:40.494Z,1.83
2018-05-10T09:37:08.756Z,1.93
2018-05-10T09:39:37.784Z,2.00
2018-05-10T09:42:06.069Z,1.90
2018-05-10T09:44:34.321Z,2.03
2018-05-10T09:47:03.343Z,2.10
2018-05-10T09:49:31.590Z,1.97
2018-05-10T09:52:00.905Z,1.98
2018-05-10T09:54:29.919Z,1.80
2018-05-10T09:56:58.208Z,1.77
2018-05-10T09:59:26.459Z,2.13
2018-05-10T10:01:55.494Z,1.80
2018-05-10T10:04:23.750Z,2.80
2018-05-10T10:06:52.770Z,2.17
2018-05-10T10:09:21.019Z,2.10
2018-05-10T10:11:50.047Z,1.95
2018-05-10T10:14:18.308Z,1.98
2018-05-10T10:16:46.587Z,2.00
2018-05-10T10:19:14.840Z,3.75
2018-05-10T10:21:43.122Z,2.28
2018-05-10T10:24:11.374Z,2.00
2018-05-10T10:26:39.630Z,2.33
2018-05-10T10:29:07.906Z,1.90
2018-05-10T10:31:36.173Z,2.10
2018-05-10T10:34:05.441Z,2.17
2018-05-10T10:36:33.699Z,2.20
2018-05-10T10:39:01.954Z,2.10
2018-05-10T10:41:30.211Z,2.00
2018-05-10T10:43:59.220Z,2.13
2018-05-10T10:46:27.488Z,2.50
2018-05-10T10:48:56.513Z,2.47
2018-05-10T10:51:24.769Z,2.40
2018-05-10T10:53:53.869Z,2.53
2018-05-10T10:56:22.043Z,2.42
2018-05-10T10:58:51.060Z,2.57
2018-05-10T11:01:19.327Z,1.80
2018-05-10T11:03:47.579Z,2.40
2018-05-10T11:06:15.852Z,2.10
2018-05-10T11:08:44.108Z,2.50
2018-05-10T11:11:12.371Z,2.57
2018-05-10T11:13:40.628Z,2.30
2018-05-10T11:16:09.646Z,2.20
2018-05-10T11:18:37.905Z,2.50
2018-05-10T11:21:06.174Z,1.90
2018-05-10T11:23:35.182Z,2.10
2018-05-10T11:26:04.094Z,2.30
2018-05-10T11:28:32.355Z,2.05
2018-05-10T11:31:01.391Z,2.37
2018-05-10T11:33:29.640Z,2.70
2018-05-10T11:35:57.920Z,2.30
2018-05-10T11:38:26.170Z,2.25
2018-05-10T11:40:54.427Z,2.70
2018-05-10T11:43:22.697Z,3.15
2018-05-10T11:45:50.955Z,3.50
2018-05-10T11:48:19.225Z,3.12
2018-05-10T11:50:47.472Z,3.10
2018-05-10T11:53:15.739Z,3.73
2018-05-10T11:55:43.983Z,2.42
2018-05-10T11:58:12.245Z,2.28
2018-05-10T12:00:40.497Z,2.80
2018-05-10T12:03:08.990Z,2.50
2018-05-10T12:05:38.003Z,3.45
2018-05-10T12:08:06.247Z,2.53
2018-05-10T12:10:34.506Z,3.15
2018-05-10T12:13:02.768Z,3.23
2018-05-10T12:15:31.018Z,2.80
2018-05-10T12:17:59.283Z,2.95
2018-05-10T12:20:28.314Z,2.58
2018-05-10T12:22:57.327Z,3.00
2018-05-10T12:25:25.586Z,2.90
2018-05-10T12:27:53.844Z,2.87
2018-05-10T12:30:22.891Z,3.22
2018-05-10T12:32:51.135Z,3.33
2018-05-10T12:35:20.155Z,3.00
2018-05-10T12:37:48.412Z,3.15
2018-05-10T12:40:17.439Z,2.97
2018-05-10T12:42:45.712Z,2.90
2018-05-10T12:45:13.959Z,2.80
2018-05-10T12:47:42.987Z,2.50
2018-05-10T12:50:11.842Z,2.78
2018-05-10T12:52:40.099Z,2.17
2018-05-10T12:55:08.359Z,2.13
2018-05-10T12:57:36.628Z,2.00
2018-05-10T13:00:04.871Z,2.10
2018-05-10T13:02:33.925Z,1.70
2018-05-10T13:05:02.176Z,1.80
2018-05-10T13:07:30.435Z,1.80
2018-05-10T13:09:59.457Z,1.97
2018-05-10T13:12:27.718Z,2.20
2018-05-10T13:14:56.744Z,1.90
2018-05-10T13:17:24.991Z,2.00
2018-05-10T13:19:54.026Z,2.40
2018-05-10T13:22:22.292Z,2.00
2018-05-10T13:24:51.327Z,2.17
2018-05-10T13:27:19.661Z,2.10
2018-05-10T13:29:47.859Z,2.00
2018-05-10T13:32:16.871Z,2.20
2018-05-10T13:34:45.140Z,2.33
2018-05-10T13:37:13.389Z,2.30
2018-05-10T13:39:42.415Z,2.00
2018-05-10T13:42:10.664Z,2.23
2018-05-10T13:44:39.695Z,2.70
2018-05-10T13:47:08.015Z,2.00
2018-05-10T13:49:36.983Z,2.07
2018-05-10T13:52:05.259Z,2.22
2018-05-10T13:54:33.512Z,2.20
2018-05-10T13:57:01.772Z,1.90
2018-05-10T13:59:30.048Z,2.07
2018-05-10T14:01:58.303Z,2.23
2018-05-10T14:04:26.576Z,2.00
2018-05-10T14:06:54.818Z,2.30
2018-05-10T14:09:23.089Z,1.77
2018-05-10T14:11:52.104Z,1.90
2018-05-10T14:14:20.375Z,1.62
2018-05-10T14:16:48.627Z,1.55
2018-05-10T14:19:16.904Z,1.77
2018-05-10T14:21:45.148Z,1.60
2018-05-10T14:24:13.415Z,1.70
2018-05-10T14:26:41.671Z,1.65
2018-05-10T14:29:10.695Z,1.70
2018-05-10T14:31:38.952Z,1.87
2018-05-10T14:34:07.989Z,1.62
2018-05-10T14:36:36.240Z,1.60
2018-05-10T14:39:05.412Z,1.60
2018-05-10T14:41:34.440Z,1.70
2018-05-10T14:44:02.707Z,1.70
2018-05-10T14:46:32.959Z,1.73
2018-05-10T14:49:01.231Z,1.70
2018-05-10T14:51:29.475Z,1.87
2018-05-10T14:53:58.570Z,1.92
2018-05-10T14:56:26.771Z,2.17
2018-05-10T14:58:55.797Z,1.75
2018-05-10T15:01:24.071Z,2.17
2018-05-10T15:03:52.333Z,1.70
2018-05-10T15:06:20.602Z,1.95
2018-05-10T15:08:49.627Z,1.65
2018-05-10T15:11:17.897Z,13.00
2018-05-10T15:13:46.175Z,1.48
2018-05-10T15:16:15.261Z,1.30
2018-05-10T15:18:44.271Z,1.60
2018-05-10T15:21:12.537Z,1.50
2018-05-10T15:23:41.627Z,1.60
2018-05-10T15:26:09.813Z,1.75
2018-05-10T15:28:40.078Z,1.70
2018-05-10T15:31:08.331Z,2.03
2018-05-10T15:33:37.352Z,1.57
2018-05-10T15:36:05.614Z,1.43
2018-05-10T15:38:34.631Z,1.57
2018-05-10T15:41:02.895Z,2.67
2018-05-10T15:43:31.155Z,2.47
2018-05-10T15:46:00.179Z,2.20
2018-05-10T15:48:28.438Z,2.20
2018-05-10T15:50:57.463Z,1.73
2018-05-10T15:53:25.728Z,1.70
2018-05-10T15:55:54.008Z,1.50
2018-05-10T15:58:22.336Z,1.30
2018-05-10T16:00:50.535Z,1.60
2018-05-10T16:03:18.790Z,1.50
2018-05-10T16:05:47.056Z,1.47
2018-05-10T16:08:15.294Z,2.10
2018-05-10T16:10:45.569Z,1.65
2018-05-10T16:13:13.815Z,1.55
2018-05-10T16:15:42.082Z,1.30
2018-05-10T16:18:11.095Z,1.40
2018-05-10T16:20:39.347Z,1.20
2018-05-10T16:23:07.632Z,1.20
2018-05-10T16:25:35.900Z,1.40
2018-05-10T16:28:04.148Z,1.35
2018-05-10T16:30:32.419Z,1.30
2018-05-10T16:33:00.667Z,1.30
2018-05-10T16:35:29.701Z,1.40
2018-05-10T16:37:59.407Z,1.20
2018-05-10T16:40:27.681Z,1.30
2018-05-10T16:42:55.936Z,1.27
2018-05-10T16:45:24.971Z,1.30
2018-05-10T16:47:53.219Z,1.43
2018-05-10T16:50:22.247Z,1.10
2018-05-10T16:52:50.691Z,1.60
2018-05-10T16:55:19.707Z,1.30
2018-05-10T16:57:47.971Z,1.40
2018-05-10T17:00:16.993Z,1.40
2018-05-10T17:02:45.248Z,1.30
2018-05-10T17:05:14.263Z,1.53
2018-05-10T17:07:42.530Z,1.30
2018-05-10T17:10:11.556Z,1.60
2018-05-10T17:12:40.356Z,1.43
2018-05-10T17:15:08.611Z,2.00
2018-05-10T17:17:37.631Z,1.67
2018-05-10T17:20:05.896Z,1.50
2018-05-10T17:22:34.910Z,2.70
2018-05-10T17:25:03.177Z,1.80
2018-05-10T17:27:31.562Z,3.80
2018-05-10T17:30:00.833Z,4.20
2018-05-10T17:32:29.105Z,2.03
2018-05-10T17:34:57.360Z,1.50
2018-05-10T17:37:25.619Z,1.87
2018-05-10T17:39:53.870Z,1.93
2018-05-10T17:42:22.898Z,2.03
2018-05-10T17:44:51.147Z,1.70
2018-05-10T17:47:20.174Z,1.97
2018-05-10T17:49:48.433Z,1.70
2018-05-10T17:52:16.711Z,2.10
2018-05-10T17:54:45.721Z,1.40
2018-05-10T17:57:14.808Z,1.90
2018-05-10T17:59:43.823Z,1.43
2018-05-10T18:02:12.091Z,1.30
2018-05-10T18:04:40.338Z,1.33
2018-05-10T18:07:08.634Z,1.30
2018-05-10T18:09:36.862Z,1.20
2018-05-10T18:12:05.128Z,1.40
2018-05-10T18:14:33.394Z,1.25
2018-05-10T18:17:01.654Z,1.20
2018-05-10T18:19:29.921Z,1.23
2018-05-10T18:21:58.173Z,1.50
2018-05-10T18:24:26.419Z,1.50
2018-05-10T18:26:54.714Z,1.30
2018-05-10T18:29:23.710Z,1.53
2018-05-10T18:31:51.975Z,1.50
2018-05-10T18:34:20.226Z,1.60
2018-05-10T18:36:48.493Z,1.60
2018-05-10T18:39:16.750Z,1.60
2018-05-10T18:41:45.007Z,1.50
2018-05-10T18:44:13.267Z,1.95
2018-05-10T18:46:42.290Z,1.90
2018-05-10T18:49:10.876Z,2.07
2018-05-10T18:51:39.120Z,1.90
2018-05-10T18:54:08.133Z,2.00
2018-05-10T18:56:36.403Z,1.98
2018-05-10T18:59:05.427Z,1.60
2018-05-10T19:01:33.695Z,1.80
2018-05-10T19:04:01.975Z,1.53
2018-05-10T19:06:30.229Z,3.42
2018-05-10T19:08:58.498Z,2.77
2018-05-10T19:11:26.747Z,1.70
2018-05-10T19:13:55.018Z,2.10
2018-05-10T19:16:23.275Z,1.93
2018-05-10T19:18:52.294Z,1.50
2018-05-10T19:21:20.563Z,2.30
2018-05-10T19:23:48.825Z,2.60
2018-05-10T19:26:17.842Z,2.60
2018-05-10T19:28:46.116Z,3.73
2018-05-10T19:31:14.362Z,2.33
2018-05-10T19:33:42.634Z,3.53
2018-05-10T19:36:10.969Z,2.90
2018-05-10T19:38:39.220Z,3.40
2018-05-10T19:41:08.248Z,3.43
2018-05-10T19:43:37.271Z,3.50
2018-05-10T19:46:05.521Z,5.03
2018-05-10T19:48:33.787Z,5.45
2018-05-10T19:51:02.817Z,6.37
2018-05-10T19:53:31.083Z,4.10
2018-05-10T19:55:59.339Z,5.50
2018-05-10T19:58:28.371Z,3.90
2018-05-10T20:00:56.628Z,3.30
2018-05-10T20:03:25.853Z,2.90
2018-05-10T20:05:54.106Z,2.17
2018-05-10T20:08:23.141Z,2.40
2018-05-10T20:10:51.386Z,2.40
2018-05-10T20:13:20.420Z,7.17
2018-05-10T20:15:48.681Z,3.60
2018-05-10T20:18:16.930Z,3.60
2018-05-10T20:20:45.961Z,6.03
2018-05-10T20:23:14.237Z,3.47
2018-05-10T20:25:42.507Z,3.80
2018-05-10T20:28:11.634Z,4.30
2018-05-10T20:30:39.788Z,5.07
2018-05-10T20:33:08.049Z,6.17
2018-05-10T20:35:37.068Z,7.20
2018-05-10T20:38:05.339Z,9.20
2018-05-10T20:40:34.367Z,10.30
2018-05-10T20:43:02.717Z,11.63
2018-05-10T20:45:30.954Z,10.37
2018-05-10T20:47:59.231Z,10.13
2018-05-10T20:50:27.555Z,11.82
2018-05-10T20:52:55.775Z,10.70
2018-05-10T20:55:24.051Z,12.20
2018-05-10T20:57:52.306Z,11.60
2018-05-10T21:00:20.570Z,13.53
2018-05-10T21:02:49.597Z,10.73
2018-05-10T21:05:17.862Z,11.03
2018-05-10T21:07:46.890Z,14.33
2018-05-10T21:10:15.156Z,11.00
2018-05-10T21:12:43.428Z,12.73
2018-05-10T21:15:11.698Z,10.50
2018-05-10T21:17:40.716Z,9.67
2018-05-10T21:20:09.563Z,10.07
2018-05-10T21:22:37.823Z,10.23
2018-05-10T21:25:06.094Z,9.70
2018-05-10T21:27:34.355Z,11.33
2018-05-10T21:30:02.619Z,7.90
2018-05-10T21:32:30.876Z,7.95
2018-05-10T21:34:59.142Z,11.03
2018-05-10T21:37:27.403Z,7.37
2018-05-10T21:39:55.664Z,7.77
2018-05-10T21:42:23.908Z,7.73
2018-05-10T21:44:53.035Z,6.68
2018-05-10T21:47:21.186Z,6.60
2018-05-10T21:50:05.567Z,7.37
2018-05-10T21:52:33.814Z,5.33
2018-05-10T21:55:02.860Z,5.60
2018-05-10T21:57:31.100Z,7.07
2018-05-10T21:59:59.371Z,5.35
2018-05-10T22:02:28.374Z,5.65
2018-05-10T22:04:57.468Z,5.63
2018-05-10T22:07:26.488Z,5.77
2018-05-10T22:09:54.751Z,6.43
2018-05-10T22:12:23.771Z,5.68
2018-05-10T22:14:52.018Z,4.87
2018-05-10T22:17:21.077Z,5.93
2018-05-10T22:19:49.336Z,7.15
2018-05-10T22:25:16.192Z,5.20
2018-05-10T22:27:44.449Z,5.20
2018-05-10T22:30:13.467Z,5.55
2018-05-10T22:32:41.707Z,5.97
2018-05-10T22:35:10.643Z,5.32
2018-05-10T22:37:38.875Z,5.50
2018-05-10T22:40:07.123Z,5.47
2018-05-10T22:42:35.369Z,5.33
2018-05-10T22:45:03.623Z,5.40
2018-05-10T22:47:32.636Z,5.30
2018-05-10T22:50:01.660Z,6.20
2018-05-10T22:52:29.917Z,6.10
2018-05-10T22:54:58.943Z,5.87
2018-05-10T22:57:27.189Z,5.93
2018-05-10T22:59:56.288Z,6.37
2018-05-10T23:02:25.314Z,6.37
2018-05-10T23:04:53.557Z,7.00
2018-05-10T23:07:22.570Z,6.57
2018-05-10T23:09:50.825Z,7.20
2018-05-10T23:12:19.072Z,6.75
2018-05-10T23:14:47.317Z,6.37
2018-05-10T23:17:15.579Z,7.50
2018-05-10T23:19:44.591Z,7.37
2018-05-10T23:22:13.366Z,7.10
2018-05-10T23:24:42.370Z,7.87
2018-05-10T23:27:11.393Z,9.20
2018-05-10T23:29:39.676Z,7.80
2018-05-10T23:32:08.675Z,9.32
2018-05-10T23:34:36.919Z,9.37
2018-05-10T23:37:05.938Z,11.43
2018-05-10T23:39:34.183Z,8.50
2018-05-10T23:42:02.434Z,9.23
2018-05-10T23:44:30.693Z,8.77
2018-05-10T23:46:58.959Z,7.97
2018-05-10T23:49:28.481Z,8.70
2018-05-10T23:51:56.726Z,8.63
2018-05-10T23:54:25.753Z,8.50
2018-05-10T23:56:54.007Z,10.98
2018-05-10T23:59:23.011Z,7.87
